Time;durP1;ratioP1;P1;durP2;ratioP2;P2;SDS_P1;SDS_P2;PMS_P1;PMS_P2;Temp;Humidity;BMP_temperature;BMP_pressure;BME280_temperature;BME280_humidity;BME280_pressure;Samples;Min_cycle;Max_cycle;Signal;HPM_P1;HPM_P2
2022/06/01 00:01:04;;;;;;;;;6.50;5.75;;;;;17.73;54.78;101260.50;5099838;27;45375;-84
2022/06/01 00:03:35;;;;;;;;;6.00;6.00;;;;;17.66;54.63;101257.69;5099697;27;45958;-81
2022/06/01 00:06:01;;;;;;;;;5.75;4.50;;;;;17.62;55.02;101255.03;5099769;27;45236;-83
2022/06/01 00:08:27;;;;;;;;;4.00;4.00;;;;;17.55;55.29;101247.00;5099971;27;45598;-83
2022/06/01 00:10:53;;;;;;;;;4.00;4.00;;;;;17.58;55.47;101258.41;5099945;27;46374;-84
2022/06/01 00:13:20;;;;;;;;;3.00;3.00;;;;;17.54;55.99;101253.06;5099380;27;45347;-83
2022/06/01 00:15:47;;;;;;;;;3.75;3.75;;;;;17.49;55.70;101258.19;5099843;27;45445;-82
2022/06/01 00:18:12;;;;;;;;;3.25;3.00;;;;;17.55;55.84;101266.19;5100240;27;45442;-82
2022/06/01 00:20:38;;;;;;;;;4.00;2.00;;;;;17.54;56.39;101267.06;5099464;27;45990;-83
2022/06/01 00:23:06;;;;;;;;;2.00;2.00;;;;;17.56;56.48;101264.47;5081426;27;45600;-85
2022/06/01 00:25:33;;;;;;;;;2.75;2.00;;;;;17.56;56.33;101264.47;5099554;27;45467;-85
2022/06/01 00:27:59;;;;;;;;;3.75;2.75;;;;;17.51;56.37;101274.84;5106108;27;45362;-85
2022/06/01 00:30:25;;;;;;;;;3.25;2.25;;;;;17.51;56.89;101271.31;5087276;27;46265;-84
2022/06/01 00:32:50;;;;;;;;;2.00;2.00;;;;;17.50;56.84;101273.06;5101524;27;45388;-83
2022/06/01 00:35:20;;;;;;;;;4.00;4.00;;;;;17.48;56.84;101283.50;5086739;27;45285;-81
2022/06/01 00:37:46;;;;;;;;;6.00;3.75;;;;;17.41;56.81;101265.00;5080699;27;45470;-85
2022/06/01 00:40:15;;;;;;;;;2.00;2.00;;;;;17.31;57.01;101254.31;5079098;27;46250;-82
2022/06/01 00:42:43;;;;;;;;;3.75;3.00;;;;;17.39;57.09;101271.91;5079150;27;45819;-83
2022/06/01 00:45:10;;;;;;;;;2.00;2.00;;;;;17.33;57.59;101262.19;5078921;28;45797;-83
2022/06/01 00:47:36;;;;;;;;;2.00;2.00;;;;;17.26;57.66;101258.53;5078953;27;45382;-82
2022/06/01 00:50:05;;;;;;;;;4.50;2.00;;;;;17.28;57.89;101272.53;5078819;28;46184;-83
2022/06/01 00:52:38;;;;;;;;;2.75;2.75;;;;;17.28;57.94;101271.66;5078491;27;45365;-83
2022/06/01 00:55:12;;;;;;;;;3.25;2.75;;;;;17.26;57.85;101262.91;5089892;27;45379;-83
2022/06/01 00:57:41;;;;;;;;;3.25;3.25;;;;;17.26;58.15;101258.53;5078756;28;45353;-83
2022/06/01 01:00:21;;;;;;;;;2.00;2.00;;;;;17.28;58.60;101266.41;5078379;28;45600;-82
2022/06/01 01:02:48;;;;;;;;;3.25;3.25;;;;;17.21;58.49;101257.56;5078390;27;45699;-83
2022/06/01 01:05:16;;;;;;;;;6.00;3.25;;;;;17.22;58.77;101264.56;5078521;28;45275;-79
2022/06/01 01:07:43;;;;;;;;;2.00;2.00;;;;;17.20;58.92;101263.63;5079383;28;45265;-84
2022/06/01 01:10:12;;;;;;;;;2.00;2.00;;;;;17.17;58.90;101263.53;5083074;28;45326;-80
2022/06/01 01:12:58;;;;;;;;;4.00;3.50;;;;;17.10;59.22;101259.00;5087714;27;45380;-79
2022/06/01 01:15:38;;;;;;;;;5.25;3.25;;;;;17.06;59.81;101251.91;5064688;28;45481;-81
2022/06/01 01:18:12;;;;;;;;;3.00;3.00;;;;;17.07;59.62;101267.66;5068603;28;45471;-83
2022/06/01 01:20:50;;;;;;;;;5.00;3.00;;;;;17.01;60.25;101257.91;5082243;28;45291;-83
2022/06/01 01:23:53;;;;;;;;;3.00;3.00;;;;;17.01;60.64;101260.53;5080698;27;45272;-83
2022/06/01 01:26:22;;;;;;;;;4.00;4.00;;;;;16.91;60.60;101248.03;5078920;28;45307;-82
2022/06/01 01:28:48;;;;;;;;;3.00;3.00;;;;;16.95;60.88;101249.94;5080702;27;45335;-84
2022/06/01 01:31:21;;;;;;;;;0.00;0.00;;;;;16.94;61.17;101256.00;5089369;27;45401;-78
2022/06/01 01:33:49;;;;;;;;;3.00;3.00;;;;;16.90;61.09;101253.22;5077895;27;45775;-84
2022/06/01 01:36:17;;;;;;;;;4.00;2.25;;;;;16.89;60.73;101261.91;5077718;27;45448;-84
2022/06/01 01:39:11;;;;;;;;;3.00;2.75;;;;;16.85;60.94;101256.59;5077882;28;45332;-84
2022/06/01 01:41:48;;;;;;;;;5.75;3.00;;;;;16.82;60.65;101259.16;5078123;28;46357;-83
2022/06/01 01:44:20;;;;;;;;;4.00;3.00;;;;;16.82;61.37;101268.72;5078379;28;45821;-85
2022/06/01 01:46:50;;;;;;;;;3.75;3.75;;;;;16.77;61.53;101263.38;5080579;28;45512;-84
2022/06/01 01:49:21;;;;;;;;;4.00;4.00;;;;;16.74;61.24;101260.66;5085380;28;45334;-78
2022/06/01 01:51:52;;;;;;;;;4.00;3.25;;;;;16.69;62.05;101265.78;5074864;28;45800;-79
2022/06/01 01:54:39;;;;;;;;;4.00;4.00;;;;;16.67;62.27;101262.25;5067194;28;45382;-82
2022/06/01 01:57:23;;;;;;;;;3.00;3.00;;;;;16.64;62.24;101262.16;5082433;28;45414;-85
2022/06/01 02:00:09;;;;;;;;;3.75;2.75;;;;;16.63;63.02;101256.91;5078204;28;45410;-82
2022/06/01 02:03:00;;;;;;;;;4.00;4.00;;;;;16.58;63.24;101250.66;5077282;27;45373;-84
2022/06/01 02:06:05;;;;;;;;;3.50;3.50;;;;;16.56;63.70;101253.22;5060632;28;45794;-84
2022/06/01 02:08:34;;;;;;;;;5.25;5.25;;;;;16.52;63.61;101257.47;5055598;28;45383;-83
2022/06/01 02:14:33;;;;;;;;;3.25;3.25;;;;;16.45;64.49;101241.59;5077905;28;45491;-82
2022/06/01 02:17:02;;;;;;;;;5.50;3.75;;;;;16.43;64.17;101243.28;5069501;28;45784;-82
2022/06/01 02:19:42;;;;;;;;;4.50;2.75;;;;;16.40;64.13;101241.47;5070628;28;45334;-83
2022/06/01 02:22:10;;;;;;;;;4.00;3.75;;;;;16.38;64.39;101233.56;5059278;28;45507;-83
2022/06/01 02:24:37;;;;;;;;;3.00;3.00;;;;;16.31;64.65;101231.63;5076297;28;46476;-84
2022/06/01 02:27:04;;;;;;;;;3.00;3.00;;;;;16.30;64.96;101232.47;5076260;27;46081;-85
2022/06/01 02:29:41;;;;;;;;;4.00;4.00;;;;;16.31;65.16;101234.25;5076623;27;45309;-84
2022/06/01 02:32:10;;;;;;;;;3.00;3.00;;;;;16.29;64.79;101235.94;5082967;28;45469;-85
2022/06/01 02:34:37;;;;;;;;;5.50;3.75;;;;;16.24;65.27;101235.81;5082982;28;46201;-85
2022/06/01 02:37:06;;;;;;;;;5.75;4.75;;;;;16.16;65.70;101223.34;5081299;28;45370;-85
2022/06/01 02:39:35;;;;;;;;;6.00;6.00;;;;;16.14;65.66;101228.53;5097525;27;45556;-84
2022/06/01 02:42:31;;;;;;;;;4.75;4.75;;;;;16.02;65.84;101218.66;5076603;27;45349;-85
2022/06/01 02:45:04;;;;;;;;;4.00;4.00;;;;;15.98;66.10;101215.91;5097398;27;46547;-84
2022/06/01 02:47:32;;;;;;;;;4.50;4.50;;;;;16.01;66.57;101218.56;5058618;28;45757;-85
2022/06/01 02:49:59;;;;;;;;;5.75;3.75;;;;;16.05;66.84;101225.69;5057208;28;45260;-81
2022/06/01 02:52:25;;;;;;;;;5.00;5.00;;;;;16.05;66.37;101216.09;5038650;28;45275;-83
2022/06/01 02:54:52;;;;;;;;;6.00;5.00;;;;;16.12;66.51;101224.13;5056203;28;45390;-81
2022/06/01 02:57:18;;;;;;;;;5.00;5.00;;;;;16.09;66.82;101227.50;5081980;27;45463;-82
2022/06/01 02:59:43;;;;;;;;;5.25;5.25;;;;;16.08;67.15;101221.41;5078788;27;45483;-85
2022/06/01 03:02:10;;;;;;;;;5.75;5.50;;;;;16.05;67.21;101218.72;5102997;27;44835;-80
2022/06/01 03:04:37;;;;;;;;;6.00;6.00;;;;;16.01;66.61;101223.81;5102346;27;46155;-80
2022/06/01 03:07:03;;;;;;;;;4.25;3.25;;;;;15.99;67.59;101210.72;5069359;27;45255;-85
2022/06/01 03:09:29;;;;;;;;;8.00;6.00;;;;;16.03;67.67;101220.41;5077294;27;45804;-82
2022/06/01 03:11:55;;;;;;;;;4.75;4.25;;;;;16.01;67.23;101210.75;5092224;27;45412;-83
2022/06/01 03:14:20;;;;;;;;;7.00;5.00;;;;;16.01;67.32;101221.19;5081624;27;45504;-82
2022/06/01 03:16:46;;;;;;;;;7.25;5.00;;;;;15.92;67.51;101214.88;5082102;28;45264;-83
2022/06/01 03:19:11;;;;;;;;;4.75;3.50;;;;;15.84;66.74;101213.75;5080358;28;45374;-84
2022/06/01 03:21:38;;;;;;;;;7.25;5.50;;;;;15.92;68.11;101234.88;5082122;27;45260;-82
2022/06/01 03:24:05;;;;;;;;;5.50;5.50;;;;;15.91;68.01;101233.13;5082672;27;45429;-80
2022/06/01 03:26:31;;;;;;;;;9.00;6.25;;;;;15.90;68.31;101241.78;5076527;27;45930;-79
2022/06/01 03:28:57;;;;;;;;;9.75;5.00;;;;;15.85;68.79;101227.69;5059848;27;45465;-84
2022/06/01 03:31:22;;;;;;;;;7.50;5.75;;;;;15.85;68.68;101236.44;5093830;27;45311;-80
2022/06/01 03:33:48;;;;;;;;;6.25;5.00;;;;;15.81;68.31;101228.44;5096337;27;45687;-81
2022/06/01 03:36:15;;;;;;;;;8.50;7.00;;;;;15.81;69.25;101239.75;5094363;27;45462;-85
2022/06/01 03:38:41;;;;;;;;;6.25;4.50;;;;;15.78;69.42;101243.16;5085005;27;45737;-85
2022/06/01 03:41:06;;;;;;;;;8.50;7.50;;;;;15.73;70.56;101234.28;5094524;27;45501;-85
2022/06/01 03:45:55;;;;;;;;;6.00;6.00;;;;;15.68;70.37;101224.53;5076308;27;46199;-86
2022/06/01 03:46:18;;;;;;;;;7.00;7.00;;;;;15.69;71.79;101236.75;5075661;28;45335;-84
2022/06/01 03:48:43;;;;;;;;;4.50;4.50;;;;;15.69;71.64;101247.19;5083542;27;45456;-85
2022/06/01 03:51:09;;;;;;;;;7.00;7.00;;;;;15.70;71.59;101246.34;5081485;27;45271;-85
2022/06/01 03:53:35;;;;;;;;;7.50;7.50;;;;;15.68;71.85;101245.41;5068236;28;47697;-85
2022/06/01 03:56:02;;;;;;;;;8.00;8.00;;;;;15.66;72.65;101247.13;5104575;27;45394;-85
2022/06/01 03:58:28;;;;;;;;;8.00;7.50;;;;;15.68;72.86;101248.94;5102615;27;45315;-82
2022/06/01 04:00:55;;;;;;;;;8.75;7.50;;;;;15.72;72.36;101253.38;5089245;27;45571;-83
2022/06/01 04:03:21;;;;;;;;;6.75;6.50;;;;;15.77;72.27;101254.44;5075744;28;46053;-85
2022/06/01 04:05:47;;;;;;;;;6.75;5.75;;;;;15.70;73.55;101239.44;5078522;27;45562;-85
2022/06/01 04:08:13;;;;;;;;;6.50;5.75;;;;;15.75;73.45;101258.72;5076398;28;45342;-80
2022/06/01 04:10:43;;;;;;;;;5.75;5.75;;;;;15.71;73.12;101262.06;5076449;28;45421;-85
2022/06/01 04:13:08;;;;;;;;;5.75;5.75;;;;;15.65;73.01;101263.63;5080029;27;46428;-85
2022/06/01 04:15:34;;;;;;;;;8.50;6.25;;;;;15.59;73.49;101256.47;5076479;27;45403;-84
2022/06/01 04:17:59;;;;;;;;;5.50;5.50;;;;;15.56;73.51;101257.25;5058392;28;45429;-83
2022/06/01 04:20:25;;;;;;;;;6.50;6.50;;;;;15.57;73.87;101272.06;5075356;28;45402;-84
2022/06/01 04:22:54;;;;;;;;;5.75;5.25;;;;;15.54;74.30;101274.59;5075686;27;45975;-84
2022/06/01 04:25:21;;;;;;;;;8.50;7.50;;;;;15.50;74.76;101274.44;5080823;27;45754;-84
2022/06/01 04:27:46;;;;;;;;;7.25;5.00;;;;;15.46;75.94;101270.84;5098711;27;45425;-82
2022/06/01 04:30:15;;;;;;;;;5.00;5.00;;;;;15.45;75.69;101282.13;5094702;27;45489;-80
2022/06/01 04:32:44;;;;;;;;;11.00;10.75;;;;;15.41;75.38;101283.75;5085514;27;45464;-83
2022/06/01 04:35:10;;;;;;;;;6.50;6.50;;;;;15.31;75.76;101263.41;5086992;27;45685;-82
2022/06/01 04:37:36;;;;;;;;;7.50;6.75;;;;;15.43;75.89;101278.59;5087344;27;45481;-83
2022/06/01 04:40:03;;;;;;;;;9.00;7.50;;;;;15.38;75.76;101278.44;5081912;27;45265;-86
2022/06/01 04:42:29;;;;;;;;;9.75;7.50;;;;;15.41;75.69;101281.13;5056105;28;45415;-85
2022/06/01 04:44:55;;;;;;;;;5.50;5.50;;;;;15.40;76.63;101281.97;5057292;28;45337;-83
2022/06/01 04:47:21;;;;;;;;;8.00;6.00;;;;;15.33;76.42;101285.22;5057820;28;45356;-86
2022/06/01 04:49:47;;;;;;;;;7.75;6.75;;;;;15.34;76.93;101292.22;5073480;28;45261;-81
2022/06/01 04:52:14;;;;;;;;;7.00;7.00;;;;;15.26;76.24;101278.03;5070948;28;46205;-84
2022/06/01 04:54:39;;;;;;;;;5.00;5.00;;;;;15.29;75.78;101296.38;5081551;28;45485;-86
2022/06/01 04:57:06;;;;;;;;;4.50;4.50;;;;;15.26;76.46;101296.31;5080213;28;45415;-84
2022/06/01 04:59:32;;;;;;;;;6.00;6.00;;;;;15.21;76.40;101297.84;5078468;28;45591;-85
2022/06/01 05:01:58;;;;;;;;;6.00;6.00;;;;;15.17;76.91;101296.88;5078564;28;46006;-84
2022/06/01 05:04:25;;;;;;;;;6.75;6.25;;;;;15.26;76.95;101314.56;5059656;28;45462;-82
2022/06/01 05:06:51;;;;;;;;;5.00;4.00;;;;;15.16;76.82;101296.00;5078160;28;45296;-85
2022/06/01 05:09:17;;;;;;;;;6.75;6.00;;;;;15.21;76.88;101297.84;5087861;28;45585;-81
2022/06/01 05:11:43;;;;;;;;;5.50;5.50;;;;;15.22;77.22;101305.75;5083305;28;45995;-81
2022/06/01 05:14:09;;;;;;;;;7.50;6.00;;;;;15.20;77.48;101301.28;5080991;28;45334;-83
2022/06/01 05:16:34;;;;;;;;;5.50;5.50;;;;;15.25;77.58;101321.47;5085486;28;45351;-83
2022/06/01 05:19:00;;;;;;;;;6.50;6.50;;;;;15.18;77.34;101309.06;5082953;28;45324;-82
2022/06/01 05:21:25;;;;;;;;;6.25;6.25;;;;;15.26;76.96;101330.22;5079947;28;46253;-82
2022/06/01 05:23:51;;;;;;;;;7.50;6.75;;;;;15.19;77.75;101313.47;5078792;28;45342;-81
2022/06/01 05:26:17;;;;;;;;;6.25;6.25;;;;;15.09;77.21;101287.91;5077916;28;45245;-88
2022/06/01 05:28:42;;;;;;;;;7.75;6.00;;;;;15.16;77.84;101292.47;5058420;28;45445;-81
2022/06/01 05:31:11;;;;;;;;;6.00;6.00;;;;;15.21;77.55;101297.84;5077067;27;45769;-83
2022/06/01 05:33:40;;;;;;;;;7.75;7.75;;;;;15.29;77.36;101312.94;5071398;28;45820;-78
2022/06/01 05:36:06;;;;;;;;;9.25;7.50;;;;;15.35;77.46;101321.78;5076935;28;45468;-82
2022/06/01 05:38:32;;;;;;;;;5.50;5.50;;;;;15.30;77.96;101304.28;5077512;28;45378;-82
2022/06/01 05:40:58;;;;;;;;;6.25;5.50;;;;;15.32;77.05;101307.84;5076480;27;46111;-84
2022/06/01 05:43:24;;;;;;;;;6.50;6.50;;;;;15.28;77.43;101295.50;5058560;28;46036;-83
2022/06/01 05:45:50;;;;;;;;;6.50;6.50;;;;;15.36;76.84;101302.69;5059805;28;45286;-79
2022/06/01 05:48:17;;;;;;;;;6.00;6.00;;;;;15.41;76.77;101303.75;5078368;27;45666;-83
2022/06/01 05:50:43;;;;;;;;;7.50;7.50;;;;;15.43;76.83;101308.16;5077643;28;45443;-79
2022/06/01 05:53:09;;;;;;;;;7.00;6.50;;;;;15.45;76.59;101303.00;5078349;28;45386;-79
2022/06/01 05:55:36;;;;;;;;;7.50;6.75;;;;;15.45;76.43;101305.59;5082318;27;45327;-82
2022/06/01 05:58:11;;;;;;;;;7.50;6.50;;;;;15.54;76.00;101305.94;5083838;27;45366;-80
2022/06/01 06:00:37;;;;;;;;;7.50;7.00;;;;;15.55;76.01;101306.78;5078913;28;45628;-85
2022/06/01 06:03:02;;;;;;;;;9.25;8.25;;;;;15.60;76.06;101315.69;5072351;27;45261;-82
2022/06/01 06:08:12;;;;;;;;;6.75;6.75;;;;;15.57;75.66;101302.53;5076670;28;45498;-80
2022/06/01 06:10:37;;;;;;;;;5.50;5.50;;;;;15.65;74.87;101310.59;5075756;28;45410;-79
2022/06/01 06:13:03;;;;;;;;;6.25;6.25;;;;;15.66;75.38;101309.78;5075415;28;45388;-84
2022/06/01 06:15:29;;;;;;;;;6.50;6.50;;;;;15.73;75.62;101316.94;5055065;28;45756;-75
2022/06/01 06:17:54;;;;;;;;;5.50;5.50;;;;;15.74;75.39;101311.75;5064809;28;45440;-79
2022/06/01 06:20:20;;;;;;;;;8.50;6.00;;;;;15.77;75.70;101306.66;5075818;28;45418;-78
2022/06/01 06:22:46;;;;;;;;;10.00;8.50;;;;;15.81;76.13;101310.22;5075428;28;45363;-79
2022/06/01 06:25:12;;;;;;;;;9.00;8.00;;;;;15.86;75.93;101318.25;5076851;27;45358;-81
2022/06/01 06:27:38;;;;;;;;;6.25;6.25;;;;;15.83;74.78;101305.94;5076759;27;45376;-81
2022/06/01 06:30:05;;;;;;;;;6.50;5.00;;;;;15.90;73.85;101309.69;5076137;27;46048;-80
2022/06/01 06:32:30;;;;;;;;;3.25;3.25;;;;;15.92;73.63;101314.09;5074309;28;45488;-80
2022/06/01 06:34:56;;;;;;;;;4.50;4.50;;;;;15.94;73.20;101315.03;5076387;28;45391;-80
2022/06/01 06:37:21;;;;;;;;;2.50;2.50;;;;;15.94;72.29;101314.13;5082863;28;45393;-80
2022/06/01 06:39:47;;;;;;;;;5.50;3.50;;;;;15.96;71.42;101311.59;5079243;28;46367;-80
2022/06/01 06:42:12;;;;;;;;;7.25;5.75;;;;;16.01;70.27;101320.44;5076895;27;45429;-81
2022/06/01 06:44:38;;;;;;;;;5.25;5.25;;;;;16.00;70.41;101318.66;5074190;28;45347;-81
2022/06/01 06:47:04;;;;;;;;;5.25;3.50;;;;;16.04;70.53;101324.03;5075695;27;45310;-78
2022/06/01 06:49:30;;;;;;;;;4.50;4.50;;;;;16.11;70.36;101326.84;5074485;28;45426;-76
2022/06/01 06:51:56;;;;;;;;;6.25;4.00;;;;;16.08;69.68;101322.41;5075312;28;45467;-77
2022/06/01 06:54:22;;;;;;;;;3.25;3.25;;;;;16.18;69.56;101328.78;5075682;27;45688;-78
2022/06/01 06:56:47;;;;;;;;;4.75;3.75;;;;;16.16;69.72;101320.91;5075404;28;45674;-77
2022/06/01 06:59:16;;;;;;;;;6.25;5.00;;;;;16.16;70.03;101315.69;5075012;28;45408;-77
2022/06/01 07:01:42;;;;;;;;;4.25;4.25;;;;;16.24;70.48;101331.59;5075347;28;46000;-78
2022/06/01 07:04:08;;;;;;;;;4.25;4.25;;;;;16.23;70.21;101330.69;5075926;28;45329;-78
2022/06/01 07:06:34;;;;;;;;;6.00;4.25;;;;;16.19;69.87;101318.41;5076139;28;45564;-79
2022/06/01 07:09:00;;;;;;;;;4.00;3.75;;;;;16.15;70.48;101315.63;5075560;27;45682;-79
2022/06/01 07:11:28;;;;;;;;;9.50;6.25;;;;;16.23;70.51;101322.00;5074592;28;45387;-78
2022/06/01 07:13:54;;;;;;;;;9.50;6.00;;;;;16.28;70.39;101328.22;5075813;28;45379;-78
2022/06/01 07:16:27;;;;;;;;;6.75;6.50;;;;;16.33;70.04;101330.97;5078152;28;45281;-76
2022/06/01 07:18:55;;;;;;;;;7.50;6.00;;;;;16.37;69.79;101333.72;5082985;27;46210;-79
2022/06/01 07:21:22;;;;;;;;;3.50;3.50;;;;;16.39;69.20;101334.66;5080775;28;45684;-80
2022/06/01 07:23:49;;;;;;;;;6.00;5.00;;;;;16.41;69.73;101334.72;5076500;28;45203;-79
2022/06/01 07:26:21;;;;;;;;;5.75;4.75;;;;;16.43;69.18;101333.00;5075953;28;45363;-76
2022/06/01 07:28:47;;;;;;;;;5.00;5.00;;;;;16.46;69.42;101334.84;5075846;28;45322;-76
2022/06/01 07:31:14;;;;;;;;;4.50;4.50;;;;;16.39;69.78;101323.31;5057757;28;45821;-78
2022/06/01 07:33:40;;;;;;;;;3.75;3.75;;;;;16.43;69.23;101324.28;5057927;28;45376;-79
2022/06/01 07:36:08;;;;;;;;;8.25;5.25;;;;;16.50;69.28;101340.22;5076054;28;45519;-79
2022/06/01 07:44:16;;;;;;;;;5.25;5.25;;;;;16.56;69.06;101344.72;5075387;28;45315;-76
2022/06/01 07:46:42;;;;;;;;;5.00;5.00;;;;;16.54;68.89;101338.56;5075884;27;45331;-77
2022/06/01 07:49:08;;;;;;;;;6.00;5.25;;;;;16.58;68.84;101336.91;5075715;27;45430;-76
2022/06/01 07:51:35;;;;;;;;;5.00;5.00;;;;;16.66;69.52;101343.25;5075323;27;45280;-76
2022/06/01 07:54:01;;;;;;;;;5.75;5.75;;;;;16.68;69.67;101345.03;5057390;28;45397;-76
2022/06/01 07:56:27;;;;;;;;;3.00;3.00;;;;;16.70;69.45;101338.13;5077209;27;45558;-77
2022/06/01 07:58:53;;;;;;;;;4.00;3.25;;;;;16.74;69.40;101339.09;5078676;27;45495;-76
2022/06/01 08:01:25;;;;;;;;;4.00;4.00;;;;;16.80;69.75;101341.00;5082512;28;45916;-76
2022/06/01 08:03:56;;;;;;;;;4.25;2.75;;;;;16.84;68.60;101335.94;5080632;27;45373;-76
2022/06/01 08:06:23;;;;;;;;;3.00;3.00;;;;;16.86;68.11;101338.56;5080306;28;45331;-75
2022/06/01 08:08:49;;;;;;;;;3.50;3.50;;;;;16.86;68.22;101334.22;5079865;28;45414;-77
2022/06/01 08:11:15;;;;;;;;;4.00;3.00;;;;;16.81;68.58;101314.00;5079267;27;45669;-78
2022/06/01 08:13:42;;;;;;;;;3.75;3.00;;;;;16.89;68.93;101325.59;5080278;28;45362;-78
2022/06/01 08:16:08;;;;;;;;;2.00;2.00;;;;;16.91;68.31;101329.09;5081026;28;45428;-79
2022/06/01 08:18:34;;;;;;;;;1.75;1.75;;;;;16.95;67.89;101333.63;5082117;27;45356;-78
2022/06/01 08:21:00;;;;;;;;;2.00;2.00;;;;;16.91;67.27;101321.25;5077059;27;45734;-78
2022/06/01 08:23:29;;;;;;;;;1.75;1.75;;;;;16.99;67.76;101334.59;5099581;27;45366;-77
2022/06/01 08:25:56;;;;;;;;;3.00;3.00;;;;;16.96;68.22;101329.25;5082614;27;45474;-77
2022/06/01 08:28:23;;;;;;;;;3.25;3.00;;;;;16.91;67.75;101316.03;5082447;27;46486;-78
2022/06/01 08:30:49;;;;;;;;;3.75;2.00;;;;;16.98;67.96;101328.47;5074014;27;45540;-78
2022/06/01 08:33:16;;;;;;;;;3.00;2.75;;;;;16.99;67.70;101321.50;5084983;27;45523;-77
2022/06/01 08:35:45;;;;;;;;;2.50;2.00;;;;;16.99;67.70;101325.03;5065956;27;45564;-76
2022/06/01 08:38:11;;;;;;;;;2.50;2.50;;;;;16.95;67.20;101310.09;5071448;27;46159;-76
2022/06/01 08:41:10;;;;;;;;;2.25;2.25;;;;;17.07;67.19;101340.91;5100956;27;45383;-77
2022/06/01 08:43:57;;;;;;;;;4.00;4.00;;;;;17.07;66.63;101333.06;5072538;27;45379;-77
2022/06/01 08:46:26;;;;;;;;;2.00;2.00;;;;;17.07;66.15;101333.06;5076111;27;45484;-75
2022/06/01 08:49:06;;;;;;;;;0.00;0.00;;;;;16.95;66.27;101317.06;5092795;27;46007;-76
2022/06/01 08:51:33;;;;;;;;;2.75;2.75;;;;;17.04;66.35;101319.91;5086733;27;45350;-76
2022/06/01 08:54:00;;;;;;;;;5.00;3.00;;;;;17.06;66.59;101327.78;5078877;27;45535;-75
2022/06/01 08:56:51;;;;;;;;;3.25;3.00;;;;;17.10;66.60;101329.66;5077954;28;45331;-76
2022/06/01 08:59:35;;;;;;;;;3.00;3.00;;;;;17.12;66.67;101330.56;5079812;27;45301;-76
2022/06/01 09:02:25;;;;;;;;;3.75;3.00;;;;;17.14;66.26;101332.38;5093150;27;45339;-75
2022/06/01 09:05:03;;;;;;;;;2.50;1.50;;;;;17.15;66.10;101334.16;5082093;27;45308;-75
2022/06/01 09:07:36;;;;;;;;;2.00;2.00;;;;;17.17;65.02;101327.22;5077043;28;45351;-76
2022/06/01 09:10:39;;;;;;;;;2.00;2.00;;;;;17.24;65.01;101327.38;5077373;28;45362;-75
2022/06/01 09:13:14;;;;;;;;;3.00;3.00;;;;;17.30;65.14;101331.06;5068282;27;45644;-78
2022/06/01 09:15:51;;;;;;;;;2.75;2.00;;;;;17.32;65.63;101326.75;5078141;28;45346;-77
2022/06/01 09:18:23;;;;;;;;;4.00;3.00;;;;;17.43;65.74;101329.63;5077865;28;45500;-77
2022/06/01 09:23:33;;;;;;;;;2.25;2.25;;;;;17.52;65.00;101321.13;5095904;27;46226;-77
2022/06/01 09:25:59;;;;;;;;;1.50;1.50;;;;;17.67;63.53;101335.41;5098887;27;45699;-77
2022/06/01 09:28:28;;;;;;;;;2.25;2.00;;;;;17.65;62.85;101327.53;5079686;27;45705;-76
2022/06/01 09:30:59;;;;;;;;;2.00;2.00;;;;;17.76;63.07;101339.13;5095933;27;46112;-77
2022/06/01 09:33:34;;;;;;;;;3.75;3.00;;;;;17.86;62.96;101328.88;5097628;27;45186;-75
2022/06/01 09:36:08;;;;;;;;;3.75;2.00;;;;;18.07;61.64;101334.63;5081216;27;45326;-75
2022/06/01 09:38:51;;;;;;;;;2.00;2.00;;;;;18.25;60.69;101344.66;5077377;28;45331;-77
2022/06/01 09:41:19;;;;;;;;;5.00;2.00;;;;;18.34;59.24;101345.69;5081460;27;45530;-77
2022/06/01 09:43:57;;;;;;;;;2.00;2.00;;;;;18.33;58.21;101330.81;5088592;27;45343;-77
2022/06/01 09:46:33;;;;;;;;;3.75;2.25;;;;;18.52;57.95;101340.81;5080891;27;45366;-76
2022/06/01 09:49:10;;;;;;;;;4.25;3.50;;;;;18.64;58.00;101344.53;5062574;28;45367;-77
2022/06/01 09:51:39;;;;;;;;;2.75;2.75;;;;;18.68;57.55;101323.66;5076233;28;46135;-77
2022/06/01 09:54:15;;;;;;;;;20.25;15.25;;;;;18.66;57.24;101328.00;5082604;27;46080;-77
2022/06/01 09:56:47;;;;;;;;;3.75;3.25;;;;;18.69;57.06;101329.78;5081747;27;45326;-77
2022/06/01 10:08:25;;;;;;;;;4.00;3.00;;;;;18.64;57.49;101337.56;5082468;27;45338;-77
2022/06/01 10:11:30;;;;;;;;;2.00;2.00;;;;;18.70;57.78;101342.06;5080199;27;45396;-77
2022/06/01 10:14:18;;;;;;;;;2.00;2.00;;;;;18.78;56.94;101321.22;5003541;28;46013;-82
2022/06/01 10:17:11;;;;;;;;;2.50;2.50;;;;;18.90;56.47;101324.06;5056055;28;45336;-87
2022/06/01 10:19:54;;;;;;;;;2.00;2.00;;;;;18.92;56.28;101324.09;5075353;28;45373;-87
2022/06/01 10:22:44;;;;;;;;;2.25;1.25;;;;;18.97;56.21;101325.09;5079765;28;45442;-87
2022/06/01 10:25:17;;;;;;;;;1.75;1.75;;;;;18.97;55.51;101319.84;5077878;28;45590;-87
2022/06/01 10:28:01;;;;;;;;;1.00;1.00;;;;;18.96;55.39;101321.59;5083048;27;46473;-88
2022/06/01 10:30:37;;;;;;;;;3.00;3.00;;;;;18.99;55.71;101316.41;5070328;28;45540;-82
2022/06/01 10:33:10;;;;;;;;;4.00;2.00;;;;;19.11;55.67;101328.00;5067782;27;45485;-84
2022/06/01 10:35:55;;;;;;;;;1.50;1.50;;;;;19.08;54.84;101301.69;5076799;27;46416;-79
2022/06/01 10:38:33;;;;;;;;;3.00;3.00;;;;;19.14;54.06;101315.81;5083042;27;45726;-89
2022/06/01 10:41:09;;;;;;;;;2.00;2.00;;;;;19.15;53.52;101308.78;5076876;27;45349;-84
2022/06/01 10:43:53;;;;;;;;;1.50;1.50;;;;;19.26;52.78;101325.63;5080122;27;45371;-80
2022/06/01 10:46:35;;;;;;;;;2.25;1.50;;;;;19.33;51.79;101308.22;5078085;27;47801;-76
2022/06/01 10:49:22;;;;;;;;;2.00;2.00;;;;;19.30;51.25;101311.69;5088850;27;45481;-85
2022/06/01 10:52:15;;;;;;;;;2.00;2.00;;;;;19.26;51.68;101311.63;5081541;28;45288;-81
2022/06/01 10:55:24;;;;;;;;;2.00;2.00;;;;;19.25;52.58;101299.34;5079037;28;45433;-81
2022/06/01 10:57:51;;;;;;;;;3.25;1.00;;;;;19.27;53.16;101306.38;5076848;28;46350;-80
2022/06/01 11:00:22;;;;;;;;;2.25;2.25;;;;;19.26;53.52;101293.25;5077528;27;45484;-80
2022/06/01 11:03:12;;;;;;;;;3.00;3.00;;;;;19.31;53.65;101295.09;5077204;28;45211;-81
2022/06/01 11:06:06;;;;;;;;;3.00;3.00;;;;;19.42;53.64;101294.38;5076770;28;45489;-85
2022/06/01 11:09:02;;;;;;;;;3.50;2.25;;;;;19.73;51.66;101298.34;5067740;27;46053;-84
2022/06/01 11:12:09;;;;;;;;;2.00;2.00;;;;;19.76;51.14;101285.25;5065698;28;45671;-86
2022/06/01 11:14:56;;;;;;;;;2.25;2.25;;;;;19.77;51.03;101288.75;5075495;28;45334;-80
2022/06/01 11:17:43;;;;;;;;;1.50;1.50;;;;;19.70;50.63;101289.53;5076032;27;45271;-79
2022/06/01 11:20:49;;;;;;;;;3.25;3.25;;;;;19.62;50.84;101295.56;5091151;27;45358;-78
2022/06/01 11:24:07;;;;;;;;;1.75;1.75;;;;;19.55;50.04;101283.19;5096094;27;45596;-79
2022/06/01 11:27:03;;;;;;;;;1.50;1.50;;;;;19.67;49.03;101284.22;5095474;27;45389;-79
2022/06/01 11:30:03;;;;;;;;;1.00;1.00;;;;;19.67;47.61;101277.25;5067697;27;45551;-78
2022/06/01 11:32:44;;;;;;;;;3.00;1.25;;;;;19.60;48.35;101276.28;5107750;27;45454;-79
2022/06/01 11:35:09;;;;;;;;;2.50;2.50;;;;;19.62;48.74;101279.81;5079670;27;45597;-80
2022/06/01 11:38:10;;;;;;;;;3.75;2.25;;;;;19.61;49.29;101272.78;5079726;27;45321;-82
2022/06/01 11:40:49;;;;;;;;;3.75;2.00;;;;;19.64;48.84;101275.47;5062252;27;45426;-82
2022/06/01 11:43:33;;;;;;;;;3.00;3.00;;;;;19.67;49.02;101272.00;5077458;27;47573;-80
2022/06/01 11:46:03;;;;;;;;;4.00;2.25;;;;;19.78;48.14;101274.75;5079116;27;45727;-80
2022/06/01 11:48:32;;;;;;;;;3.00;3.00;;;;;19.88;47.95;101278.44;5078844;27;45472;-79
2022/06/01 11:51:12;;;;;;;;;1.00;1.00;;;;;19.90;46.94;101267.09;5074000;27;45483;-81
2022/06/01 11:54:01;;;;;;;;;1.25;1.25;;;;;19.86;46.58;101273.19;5074250;27;46204;-78
2022/06/01 11:56:30;;;;;;;;;1.00;1.00;;;;;19.87;45.29;101276.69;5061606;28;45488;-80
2022/06/01 11:59:12;;;;;;;;;1.50;1.00;;;;;19.78;45.39;101259.91;5058777;28;45521;-80
2022/06/01 12:01:41;;;;;;;;;3.25;2.25;;;;;19.77;45.84;101259.84;5058943;28;45423;-80
2022/06/01 12:04:23;;;;;;;;;2.00;2.00;;;;;19.83;45.81;101264.31;5058407;28;45459;-83
2022/06/01 12:07:08;;;;;;;;;1.00;0.00;;;;;19.89;44.94;101260.06;5058671;28;45709;-80
2022/06/01 12:09:50;;;;;;;;;3.75;2.00;;;;;19.95;44.22;101260.16;5058279;28;45351;-80